Saint Nikolaos — V7CQ4 — position and weather

sailwx.info

Track history (hours):
 
Tides and Currents Weather Stations Pressure Air Temp Water Temp Dewpoint Dewpoint Depression Visibility Wind Speed Wind Dir Waves Ship Positions

Saint Nikolaos

Last reported at 2018-Jun-18 12:03 UTC. Time now 2018-Jun-21 22:08 UTC.
Position N 09°36' W 080°03'.

Length 211 m; draft 9.1 m.

Type: Ship (hazmat cat B). MMSI: 538005306.

Date/timePositionNaut miles runAvg speedWind from/ knotsBaromVisibWave heightAir tempDewpointWater temp
2018-Jun-18 12:03N 09°36' W 080°03'118.0
2018-Jun-18 12:00N 09°36' W 080°02'917.6
2018-Jun-18 11:30N 09°30' W 079°55'714.2
2018-Jun-18 11:00N 09°23' W 079°54'2 3.7
2018-Jun-18 10:27N 09°21' W 079°53'0 0.0
2018-Jun-18 09:57N 09°21' W 079°53'0 0.0
2018-Jun-18 09:27N 09°21' W 079°53'0 0.0
2018-Jun-18 08:55N 09°21' W 079°53'0 0.0
2018-Jun-18 08:27N 09°21' W 079°53'0 0.0
2018-Jun-18 07:57N 09°21' W 079°53'0 0.0
2018-Jun-18 07:27N 09°21' W 079°53'0 0.0
2018-Jun-18 06:57N 09°21' W 079°53'0 0.0
2018-Jun-18 06:27N 09°21' W 079°53'0 0.0
2018-Jun-18 05:57N 09°21' W 079°53'0 0.0
2018-Jun-18 05:27N 09°21' W 079°53'0 0.0
2018-Jun-18 04:57N 09°21' W 079°53'0 0.0
2018-Jun-18 04:27N 09°21' W 079°53'0 0.0
2018-Jun-18 03:57N 09°21' W 079°53'0 0.0
2018-Jun-18 03:27N 09°21' W 079°53'0 0.0
2018-Jun-18 02:57N 09°21' W 079°53'0 0.0
2018-Jun-18 02:27N 09°21' W 079°53'0 0.0
2018-Jun-18 01:45N 09°21' W 079°53'0 0.2
2018-Jun-18 01:30N 09°21' W 079°53'1 1.5
2018-Jun-18 01:00N 09°22' W 079°53'3 6.3
2018-Jun-18 00:30N 09°25' W 079°53'1 1.6
2018-Jun-17 23:59N 09°26' W 079°53'0 0.1
2018-Jun-17 23:30N 09°26' W 079°53'1 1.3
2018-Jun-17 23:00N 09°26' W 079°52'0 0.4
2018-Jun-17 22:30N 09°26' W 079°52'0 0.9
2018-Jun-17 22:00N 09°27' W 079°52'2 3.3
2018-Jun-17 21:30N 09°28' W 079°52'0 0.8
2018-Jun-17 20:58N 09°28' W 079°52'0 0.0
2018-Jun-17 20:25N 09°28' W 079°52'0 0.0
2018-Jun-17 19:58N 09°28' W 079°52'0 0.0
2018-Jun-17 19:28N 09°28' W 079°52'0 0.0
2018-Jun-17 18:55N 09°28' W 079°52'0 0.0
2018-Jun-17 17:40N 09°28' W 079°52'0 0.0
2018-Jun-17 17:28N 09°28' W 079°52'0 0.1
2018-Jun-17 16:58N 09°28' W 079°52'0 0.1
2018-Jun-17 16:22N 09°28' W 079°52'0 0.0
2018-Jun-17 15:28N 09°28' W 079°52'1 2.4
2018-Jun-17 15:00N 09°29' W 079°52'  
2018-Jun-09 14:37N 10°23' W 075°31'0 0.0
2018-Jun-09 14:13N 10°23' W 075°31'0 0.4
2018-Jun-09 14:00N 10°23' W 075°31'0 0.1
2018-Jun-09 13:28N 10°23' W 075°31'0 0.0
2018-Jun-09 12:56N 10°23' W 075°31'0 0.0
2018-Jun-09 12:28N 10°23' W 075°31'0 0.0
2018-Jun-09 11:58N 10°23' W 075°31'0 0.0
2018-Jun-09 11:28N 10°23' W 075°31'0 0.0
2018-Jun-09 10:58N 10°23' W 075°31'0 0.0
2018-Jun-09 10:28N 10°23' W 075°31'0 0.0
2018-Jun-09 08:47N 10°23' W 075°31'0 0.0
2018-Jun-09 08:26N 10°23' W 075°31'0 0.0
2018-Jun-09 08:00N 10°23' W 075°31'0 0.0
2018-Jun-09 07:30N 10°23' W 075°31'0 0.0
2018-Jun-09 07:00N 10°23' W 075°31'0 0.0
2018-Jun-09 06:22N 10°23' W 075°31'0 0.7
2018-Jun-09 05:58N 10°23' W 075°31'3 7.2
2018-Jun-09 05:30N 10°20' W 075°33'4 8.6
2018-Jun-09 04:59N 10°19' W 075°37'3 5.8
2018-Jun-09 04:30N 10°18' W 075°40'8 1.0
2018-Jun-08 21:15N 10°17' W 075°47'  
Track history (hours):
 
Tides and Currents Weather Stations Pressure Air Temp Water Temp Dewpoint Dewpoint Depression Visibility Wind Speed Wind Dir Waves Ship Positions

Saint Nikolaos

Last reported at 2018-Jun-18 12:03 UTC. Time now 2018-Jun-21 22:08 UTC.
Position N 09°36' W 080°03'.

Length 211 m; draft 9.1 m.

Type: Ship (hazmat cat B). MMSI: 538005306.

Date/timePositionNaut miles runAvg speedWind from/ knotsBaromVisibWave heightAir tempDewpointWater temp
2018-Jun-18 12:03N 09°36' W 080°03'118.0
2018-Jun-18 12:00N 09°36' W 080°02'917.6
2018-Jun-18 11:30N 09°30' W 079°55'714.2
2018-Jun-18 11:00N 09°23' W 079°54'2 3.7
2018-Jun-18 10:27N 09°21' W 079°53'0 0.0
2018-Jun-18 09:57N 09°21' W 079°53'0 0.0
2018-Jun-18 09:27N 09°21' W 079°53'0 0.0
2018-Jun-18 08:55N 09°21' W 079°53'0 0.0
2018-Jun-18 08:27N 09°21' W 079°53'0 0.0
2018-Jun-18 07:57N 09°21' W 079°53'0 0.0
2018-Jun-18 07:27N 09°21' W 079°53'0 0.0
2018-Jun-18 06:57N 09°21' W 079°53'0 0.0
2018-Jun-18 06:27N 09°21' W 079°53'0 0.0
2018-Jun-18 05:57N 09°21' W 079°53'0 0.0
2018-Jun-18 05:27N 09°21' W 079°53'0 0.0
2018-Jun-18 04:57N 09°21' W 079°53'0 0.0
2018-Jun-18 04:27N 09°21' W 079°53'0 0.0
2018-Jun-18 03:57N 09°21' W 079°53'0 0.0
2018-Jun-18 03:27N 09°21' W 079°53'0 0.0
2018-Jun-18 02:57N 09°21' W 079°53'0 0.0
2018-Jun-18 02:27N 09°21' W 079°53'0 0.0
2018-Jun-18 01:45N 09°21' W 079°53'0 0.2
2018-Jun-18 01:30N 09°21' W 079°53'1 1.5
2018-Jun-18 01:00N 09°22' W 079°53'3 6.3
2018-Jun-18 00:30N 09°25' W 079°53'1 1.6
2018-Jun-17 23:59N 09°26' W 079°53'0 0.1
2018-Jun-17 23:30N 09°26' W 079°53'1 1.3
2018-Jun-17 23:00N 09°26' W 079°52'0 0.4
2018-Jun-17 22:30N 09°26' W 079°52'0 0.9
2018-Jun-17 22:00N 09°27' W 079°52'2 3.3
2018-Jun-17 21:30N 09°28' W 079°52'0 0.8
2018-Jun-17 20:58N 09°28' W 079°52'0 0.0
2018-Jun-17 20:25N 09°28' W 079°52'0 0.0
2018-Jun-17 19:58N 09°28' W 079°52'0 0.0
2018-Jun-17 19:28N 09°28' W 079°52'0 0.0
2018-Jun-17 18:55N 09°28' W 079°52'0 0.0
2018-Jun-17 17:40N 09°28' W 079°52'0 0.0
2018-Jun-17 17:28N 09°28' W 079°52'0 0.1
2018-Jun-17 16:58N 09°28' W 079°52'0 0.1
2018-Jun-17 16:22N 09°28' W 079°52'0 0.0
2018-Jun-17 15:28N 09°28' W 079°52'1 2.4
2018-Jun-17 15:00N 09°29' W 079°52'  
2018-Jun-09 14:37N 10°23' W 075°31'0 0.0
2018-Jun-09 14:13N 10°23' W 075°31'0 0.4
2018-Jun-09 14:00N 10°23' W 075°31'0 0.1
2018-Jun-09 13:28N 10°23' W 075°31'0 0.0
2018-Jun-09 12:56N 10°23' W 075°31'0 0.0
2018-Jun-09 12:28N 10°23' W 075°31'0 0.0
2018-Jun-09 11:58N 10°23' W 075°31'0 0.0
2018-Jun-09 11:28N 10°23' W 075°31'0 0.0
2018-Jun-09 10:58N 10°23' W 075°31'0 0.0
2018-Jun-09 10:28N 10°23' W 075°31'0 0.0
2018-Jun-09 08:47N 10°23' W 075°31'0 0.0
2018-Jun-09 08:26N 10°23' W 075°31'0 0.0
2018-Jun-09 08:00N 10°23' W 075°31'0 0.0
2018-Jun-09 07:30N 10°23' W 075°31'0 0.0
2018-Jun-09 07:00N 10°23' W 075°31'0 0.0
2018-Jun-09 06:22N 10°23' W 075°31'0 0.7
2018-Jun-09 05:58N 10°23' W 075°31'3 7.2
2018-Jun-09 05:30N 10°20' W 075°33'4 8.6
2018-Jun-09 04:59N 10°19' W 075°37'3 5.8
2018-Jun-09 04:30N 10°18' W 075°40'8 1.0
2018-Jun-08 21:15N 10°17' W 075°47'  

Dump ship's entire track history